Time;durP1;ratioP1;P1;durP2;ratioP2;P2;SDS_P1;SDS_P2;PMS_P1;PMS_P2;Temp;Humidity;BMP_temperature;BMP_pressure;BME280_temperature;BME280_humidity;BME280_pressure;Samples;Min_cycle;Max_cycle;Signal;HPM_P1;HPM_P2
2023/03/15 00:02:03;;;;;;;9.93;2.95;;;3.60;99.90;;;;;;5034445;28;20167;-44
2023/03/15 00:04:31;;;;;;;8.77;3.33;;;3.60;99.90;;;;;;5034921;28;20171;-44
2023/03/15 00:06:57;;;;;;;7.72;3.70;;;3.60;99.90;;;;;;5034533;28;20171;-44
2023/03/15 00:09:23;;;;;;;9.95;3.28;;;3.60;99.90;;;;;;5033711;28;20183;-44
2023/03/15 00:11:50;;;;;;;11.80;4.80;;;3.70;99.90;;;;;;5034773;28;20179;-44
2023/03/15 00:14:16;;;;;;;11.20;3.47;;;3.70;99.90;;;;;;5035057;28;20202;-43
2023/03/15 00:16:42;;;;;;;13.18;3.92;;;3.70;99.90;;;;;;5034357;28;20369;-44
2023/03/15 00:19:08;;;;;;;4.50;2.72;;;3.80;99.90;;;;;;5034410;28;20290;-44
2023/03/15 00:21:34;;;;;;;8.27;4.00;;;3.80;99.90;;;;;;5034384;28;20194;-44
2023/03/15 00:24:00;;;;;;;13.10;3.40;;;3.80;99.90;;;;;;5034446;28;20214;-45
2023/03/15 00:26:26;;;;;;;7.05;3.05;;;3.90;99.90;;;;;;5034468;28;20175;-44
2023/03/15 00:28:52;;;;;;;11.32;4.18;;;3.90;99.90;;;;;;5034011;28;20742;-44
2023/03/15 00:31:20;;;;;;;10.63;3.80;;;3.90;99.90;;;;;;5034484;28;20186;-45
2023/03/15 00:33:47;;;;;;;18.02;4.82;;;4.00;99.90;;;;;;5034691;28;20171;-44
2023/03/15 00:36:13;;;;;;;11.27;4.15;;;4.10;99.90;;;;;;5034232;28;20640;-45
2023/03/15 00:38:40;;;;;;;14.40;4.60;;;4.10;99.90;;;;;;5033903;28;20287;-44
2023/03/15 00:41:08;;;;;;;12.18;4.47;;;4.00;99.90;;;;;;5034409;28;20179;-45
2023/03/15 00:43:34;;;;;;;6.78;3.72;;;4.10;99.90;;;;;;5034419;28;20183;-45
2023/03/15 00:46:01;;;;;;;16.55;4.88;;;4.10;99.90;;;;;;5034125;28;20623;-45
2023/03/15 00:48:27;;;;;;;11.90;4.13;;;4.20;99.90;;;;;;5034312;28;20233;-45
2023/03/15 00:51:11;;;;;;;9.55;3.95;;;4.10;99.90;;;;;;5033902;28;20171;-45
2023/03/15 00:53:39;;;;;;;12.23;4.70;;;4.20;99.90;;;;;;5033885;28;20258;-44
2023/03/15 00:56:25;;;;;;;11.23;5.20;;;4.10;99.90;;;;;;5033771;28;20686;-44
2023/03/15 00:58:52;;;;;;;9.77;4.97;;;4.10;99.90;;;;;;5027060;28;20242;-44
2023/03/15 01:01:23;;;;;;;8.95;4.78;;;4.00;99.90;;;;;;5034196;28;20169;-44
2023/03/15 01:03:50;;;;;;;15.38;4.35;;;4.00;99.90;;;;;;5033554;28;20229;-44
2023/03/15 01:06:21;;;;;;;6.97;4.00;;;4.10;99.90;;;;;;5034262;28;20229;-44
2023/03/15 01:08:47;;;;;;;15.30;4.65;;;4.10;99.90;;;;;;5033789;28;20775;-45
2023/03/15 01:11:23;;;;;;;12.90;3.65;;;4.10;99.90;;;;;;5032401;28;20171;-44
2023/03/15 01:13:52;;;;;;;21.88;4.68;;;4.10;99.90;;;;;;5033785;28;20250;-44
2023/03/15 01:16:18;;;;;;;7.95;4.22;;;4.10;99.90;;;;;;5033311;28;20652;-44
2023/03/15 01:18:43;;;;;;;9.20;3.85;;;4.20;99.90;;;;;;5033671;28;20210;-44
2023/03/15 01:21:12;;;;;;;12.57;4.72;;;4.10;99.90;;;;;;5033363;28;20174;-44
2023/03/15 01:23:38;;;;;;;6.10;3.08;;;4.10;99.90;;;;;;5033219;28;20168;-44
2023/03/15 01:26:05;;;;;;;7.97;3.63;;;4.00;99.90;;;;;;5033136;28;20178;-44
2023/03/15 01:28:31;;;;;;;5.97;2.97;;;4.00;99.90;;;;;;5033273;28;20174;-44
2023/03/15 01:30:57;;;;;;;5.68;2.63;;;3.90;99.90;;;;;;5033277;28;20160;-44
2023/03/15 01:33:22;;;;;;;4.05;2.70;;;3.70;99.90;;;;;;5033408;28;20171;-44
2023/03/15 01:36:00;;;;;;;4.93;2.55;;;3.60;99.90;;;;;;5033156;28;20190;-46
2023/03/15 01:38:25;;;;;;;5.57;2.97;;;3.40;99.90;;;;;;5032859;28;20293;-44
2023/03/15 01:40:51;;;;;;;4.82;2.78;;;3.40;99.90;;;;;;5033070;28;20246;-45
2023/03/15 01:43:20;;;;;;;6.70;2.58;;;3.30;99.90;;;;;;5033607;28;20271;-44
2023/03/15 01:45:56;;;;;;;4.63;2.70;;;3.20;99.90;;;;;;5033293;28;20532;-44
2023/03/15 01:48:27;;;;;;;5.43;2.63;;;3.30;99.90;;;;;;5032927;28;20163;-44
2023/03/15 01:50:54;;;;;;;7.88;3.83;;;3.30;99.90;;;;;;5032827;28;20213;-44
2023/03/15 01:53:23;;;;;;;7.63;3.50;;;3.30;99.90;;;;;;5032710;28;20170;-44
2023/03/15 01:55:51;;;;;;;6.70;3.70;;;3.30;99.90;;;;;;5032736;28;20168;-44
2023/03/15 01:58:20;;;;;;;8.15;3.80;;;3.30;99.90;;;;;;5033038;28;20564;-45
2023/03/15 02:00:46;;;;;;;4.30;3.40;;;3.30;99.90;;;;;;5033027;28;20681;-44
2023/03/15 02:03:17;;;;;;;9.05;3.90;;;3.10;99.90;;;;;;5032534;28;20214;-44
2023/03/15 02:05:48;;;;;;;10.95;4.20;;;3.00;99.90;;;;;;5032849;28;20155;-44
2023/03/15 02:08:16;;;;;;;5.28;3.70;;;2.90;99.90;;;;;;5032711;28;20222;-45
2023/03/15 02:10:48;;;;;;;4.90;3.08;;;2.70;99.90;;;;;;5032377;28;20199;-46
2023/03/15 02:13:18;;;;;;;10.02;4.82;;;2.60;99.90;;;;;;5032887;28;20178;-44
2023/03/15 02:15:45;;;;;;;10.35;4.88;;;2.60;99.90;;;;;;5032694;28;20213;-44
2023/03/15 02:18:15;;;;;;;6.95;4.47;;;2.60;99.90;;;;;;5032306;28;20211;-44
2023/03/15 02:20:46;;;;;;;8.45;4.97;;;2.50;99.90;;;;;;5032186;28;20167;-44
2023/03/15 02:23:14;;;;;;;7.85;4.57;;;2.60;99.90;;;;;;5032106;28;20686;-44
2023/03/15 02:25:48;;;;;;;8.40;4.45;;;2.60;99.90;;;;;;5032193;28;20262;-44
2023/03/15 02:28:16;;;;;;;6.50;3.92;;;2.50;99.90;;;;;;5032474;28;20561;-46
2023/03/15 02:30:43;;;;;;;8.40;4.00;;;2.50;99.90;;;;;;5032399;28;20183;-44
2023/03/15 02:33:22;;;;;;;7.45;3.92;;;2.40;99.90;;;;;;5031839;28;20253;-44
2023/03/15 02:35:48;;;;;;;5.38;4.15;;;2.40;99.90;;;;;;5031777;28;20297;-44
2023/03/15 02:38:14;;;;;;;6.50;4.13;;;2.40;99.90;;;;;;5032180;28;20667;-44
2023/03/15 02:40:40;;;;;;;5.88;4.10;;;2.40;99.90;;;;;;5031900;28;20198;-45
2023/03/15 02:43:23;;;;;;;6.80;3.92;;;2.40;99.90;;;;;;5031800;28;20186;-45
2023/03/15 02:45:49;;;;;;;7.00;4.43;;;2.40;99.90;;;;;;5030381;28;20643;-45
2023/03/15 02:48:16;;;;;;;6.75;4.40;;;2.40;99.90;;;;;;5032218;28;20180;-46
2023/03/15 02:50:42;;;;;;;7.50;4.03;;;2.40;99.90;;;;;;5031652;28;20250;-47
2023/03/15 02:53:08;;;;;;;5.18;4.18;;;2.50;99.90;;;;;;5030310;28;20258;-50
2023/03/15 02:55:34;;;;;;;7.05;4.55;;;2.50;99.90;;;;;;5031702;28;20167;-49
2023/03/15 02:58:00;;;;;;;5.65;4.35;;;2.50;99.90;;;;;;5031630;28;20218;-45
2023/03/15 03:00:27;;;;;;;8.20;4.90;;;2.50;99.90;;;;;;5031690;28;20167;-48
2023/03/15 03:02:53;;;;;;;8.90;4.95;;;2.50;99.90;;;;;;5031587;28;20171;-44
2023/03/15 03:05:19;;;;;;;7.05;4.50;;;2.60;99.90;;;;;;5031221;28;20635;-44
2023/03/15 03:07:45;;;;;;;8.95;5.32;;;2.40;99.90;;;;;;5031442;28;20213;-44
2023/03/15 03:10:13;;;;;;;10.75;5.45;;;2.40;99.90;;;;;;5031687;28;20174;-44
2023/03/15 03:12:39;;;;;;;7.28;4.80;;;2.40;99.90;;;;;;5031412;28;20175;-44
2023/03/15 03:15:05;;;;;;;5.15;3.53;;;2.40;99.90;;;;;;5031322;28;20182;-44
2023/03/15 03:17:31;;;;;;;8.00;4.32;;;2.50;99.90;;;;;;5030944;28;20670;-44
2023/03/15 03:19:56;;;;;;;6.05;3.75;;;2.50;99.90;;;;;;5031350;28;20172;-44
2023/03/15 03:22:23;;;;;;;5.72;3.80;;;2.50;99.90;;;;;;5031210;28;20209;-44
2023/03/15 03:24:50;;;;;;;4.85;3.60;;;2.50;99.90;;;;;;5031417;28;20186;-44
2023/03/15 03:27:17;;;;;;;4.15;2.58;;;2.40;99.90;;;;;;5031711;28;20167;-44
2023/03/15 03:29:43;;;;;;;2.88;2.38;;;2.40;99.90;;;;;;5030074;28;20206;-44
2023/03/15 03:32:09;;;;;;;3.53;2.10;;;2.40;99.90;;;;;;5031174;28;20163;-44
2023/03/15 03:34:35;;;;;;;6.03;2.80;;;2.40;99.90;;;;;;5030584;28;20801;-45
2023/03/15 03:37:01;;;;;;;5.95;3.35;;;2.40;99.90;;;;;;5030604;28;20182;-44
2023/03/15 03:39:27;;;;;;;3.85;2.88;;;2.50;99.90;;;;;;5030783;28;20203;-50
2023/03/15 03:41:52;;;;;;;4.97;3.60;;;2.60;99.90;;;;;;5031136;28;20180;-46
2023/03/15 03:44:18;;;;;;;6.05;3.17;;;2.60;99.90;;;;;;5031263;28;20163;-50
2023/03/15 03:46:44;;;;;;;5.00;3.45;;;2.70;99.90;;;;;;5031449;28;20172;-52
2023/03/15 03:49:09;;;;;;;5.00;3.05;;;2.70;99.90;;;;;;5030925;28;20167;-51
2023/03/15 03:51:36;;;;;;;7.85;3.30;;;2.70;99.90;;;;;;5031167;28;20263;-49
2023/03/15 03:54:03;;;;;;;5.20;2.95;;;2.80;99.90;;;;;;5031088;28;20217;-47
2023/03/15 03:56:29;;;;;;;4.50;3.10;;;2.70;99.90;;;;;;5031100;28;20175;-51
2023/03/15 03:58:54;;;;;;;5.75;2.95;;;2.70;99.90;;;;;;5030863;28;20234;-52
2023/03/15 04:01:21;;;;;;;3.63;2.60;;;2.70;99.90;;;;;;5030902;28;20206;-50
2023/03/15 04:03:47;;;;;;;5.60;3.58;;;2.70;99.90;;;;;;5031471;28;20187;-50
2023/03/15 04:06:13;;;;;;;4.57;3.20;;;2.60;99.90;;;;;;5031021;28;20246;-47
2023/03/15 04:08:39;;;;;;;4.20;3.00;;;2.70;99.90;;;;;;5030714;28;20246;-51
2023/03/15 04:11:05;;;;;;;6.75;3.33;;;2.80;99.90;;;;;;5030910;28;20176;-52
2023/03/15 04:13:31;;;;;;;6.50;2.97;;;2.80;99.90;;;;;;5030822;28;20518;-50
2023/03/15 04:15:56;;;;;;;3.80;2.47;;;2.80;99.90;;;;;;5030613;28;20171;-51
2023/03/15 04:18:22;;;;;;;4.40;3.10;;;2.80;99.90;;;;;;5030553;28;20210;-47
2023/03/15 04:20:48;;;;;;;5.40;3.30;;;2.70;99.90;;;;;;5030788;28;20167;-47
2023/03/15 04:23:20;;;;;;;4.70;3.53;;;2.70;99.90;;;;;;5031131;28;20167;-49
2023/03/15 04:25:50;;;;;;;4.50;3.42;;;2.60;99.90;;;;;;5030974;28;20628;-51
2023/03/15 04:28:17;;;;;;;4.20;3.00;;;2.60;99.90;;;;;;5031315;28;20176;-47
2023/03/15 04:30:43;;;;;;;4.55;3.20;;;2.50;99.90;;;;;;5031080;28;20163;-49
2023/03/15 04:33:09;;;;;;;4.22;3.03;;;2.40;99.90;;;;;;5030415;28;20164;-48
2023/03/15 04:35:37;;;;;;;4.82;3.00;;;2.40;99.90;;;;;;5030512;28;20192;-45
2023/03/15 04:38:03;;;;;;;3.25;2.72;;;2.30;99.90;;;;;;5030292;28;20675;-49
2023/03/15 04:40:33;;;;;;;4.18;3.13;;;2.40;99.90;;;;;;5030482;28;20232;-50
2023/03/15 04:43:02;;;;;;;5.57;3.05;;;2.30;99.90;;;;;;5030444;28;20725;-43
2023/03/15 04:45:28;;;;;;;8.73;2.90;;;2.30;99.90;;;;;;5029976;28;20184;-47
2023/03/15 04:47:54;;;;;;;3.83;3.40;;;2.30;99.90;;;;;;5034015;28;20170;-45
2023/03/15 04:50:21;;;;;;;4.97;3.50;;;2.30;99.90;;;;;;5033867;28;20585;-46
2023/03/15 04:52:47;;;;;;;3.70;3.20;;;2.30;99.90;;;;;;5034627;28;20174;-48
2023/03/15 04:55:13;;;;;;;4.75;3.67;;;2.40;99.90;;;;;;5034177;28;20581;-48
2023/03/15 04:57:39;;;;;;;4.20;3.55;;;2.40;99.90;;;;;;5033609;28;20191;-49
2023/03/15 05:00:07;;;;;;;4.30;3.33;;;2.40;99.90;;;;;;5033647;28;20202;-47
2023/03/15 05:02:33;;;;;;;3.17;2.80;;;2.40;99.90;;;;;;5033881;28;20571;-46
2023/03/15 05:04:59;;;;;;;3.25;2.90;;;2.40;99.90;;;;;;5033580;28;20167;-49
2023/03/15 05:07:24;;;;;;;4.05;3.50;;;2.40;99.90;;;;;;5033142;28;20223;-47
2023/03/15 05:09:50;;;;;;;3.80;3.50;;;2.40;99.90;;;;;;5033455;28;20247;-50
2023/03/15 05:12:16;;;;;;;3.97;3.15;;;2.40;99.90;;;;;;5033680;28;20164;-51
2023/03/15 05:14:41;;;;;;;4.05;3.55;;;2.50;99.90;;;;;;5033319;28;20179;-49
2023/03/15 05:17:07;;;;;;;4.07;3.60;;;2.50;99.90;;;;;;5033389;28;20163;-48
2023/03/15 05:19:33;;;;;;;5.85;3.53;;;2.40;99.90;;;;;;5033250;28;20213;-49
2023/03/15 05:21:59;;;;;;;5.22;4.05;;;2.50;99.90;;;;;;5033510;28;20566;-44
2023/03/15 05:24:25;;;;;;;3.85;3.55;;;2.50;99.90;;;;;;5033246;28;20203;-44
2023/03/15 05:26:53;;;;;;;4.70;4.05;;;2.50;99.90;;;;;;5033313;28;20583;-44
2023/03/15 05:29:20;;;;;;;4.20;3.80;;;2.40;99.90;;;;;;5033496;28;20175;-44
2023/03/15 05:31:46;;;;;;;5.25;4.07;;;2.40;99.90;;;;;;5033643;28;20177;-46
2023/03/15 05:34:12;;;;;;;5.10;4.55;;;2.40;99.90;;;;;;5033032;28;20160;-44
2023/03/15 05:36:37;;;;;;;4.68;4.20;;;2.60;99.90;;;;;;5032860;28;20190;-44
2023/03/15 05:39:03;;;;;;;4.20;3.80;;;2.60;99.90;;;;;;5032952;28;20203;-44
2023/03/15 05:41:29;;;;;;;4.88;4.30;;;2.60;99.90;;;;;;5031805;28;20182;-50
2023/03/15 05:43:54;;;;;;;5.60;4.03;;;2.60;99.90;;;;;;5032714;28;20551;-48
2023/03/15 05:46:21;;;;;;;5.03;4.53;;;2.60;99.90;;;;;;5032742;28;20171;-51
2023/03/15 05:48:47;;;;;;;6.05;4.82;;;2.80;99.90;;;;;;5032819;28;20623;-47
2023/03/15 05:51:14;;;;;;;6.80;5.10;;;2.90;99.90;;;;;;5033080;28;20203;-47
2023/03/15 05:53:39;;;;;;;5.53;4.78;;;2.90;99.90;;;;;;5033612;28;20167;-50
2023/03/15 05:56:05;;;;;;;7.70;5.65;;;2.90;99.90;;;;;;5033035;28;20179;-47
2023/03/15 05:58:31;;;;;;;7.47;5.88;;;2.90;99.90;;;;;;5032985;28;20688;-44
2023/03/15 06:00:57;;;;;;;5.90;5.30;;;3.00;99.90;;;;;;5031874;28;20258;-44
2023/03/15 06:03:22;;;;;;;7.00;5.38;;;3.10;99.90;;;;;;5033017;28;20175;-44
2023/03/15 06:05:48;;;;;;;7.35;5.85;;;3.20;99.90;;;;;;5032675;28;20528;-44
2023/03/15 06:08:13;;;;;;;5.40;4.78;;;3.10;99.90;;;;;;5032894;28;20230;-45
2023/03/15 06:10:39;;;;;;;6.63;5.93;;;3.10;99.90;;;;;;5032884;28;20313;-44
2023/03/15 06:13:05;;;;;;;6.57;5.82;;;3.30;99.90;;;;;;5033218;28;20257;-45
2023/03/15 06:15:31;;;;;;;8.48;6.53;;;3.30;99.90;;;;;;5032802;28;20202;-49
2023/03/15 06:17:57;;;;;;;8.95;7.35;;;3.30;99.90;;;;;;5032549;28;20274;-45
2023/03/15 06:20:22;;;;;;;10.82;6.82;;;3.30;99.90;;;;;;5032463;28;20178;-44
2023/03/15 06:22:48;;;;;;;6.80;6.10;;;3.30;99.90;;;;;;5032682;28;20167;-44
2023/03/15 06:25:13;;;;;;;7.30;5.88;;;3.40;99.90;;;;;;5033017;28;20186;-44
2023/03/15 06:27:39;;;;;;;7.22;5.45;;;3.50;99.90;;;;;;5032529;28;20642;-44
2023/03/15 06:30:05;;;;;;;6.00;5.40;;;3.60;99.90;;;;;;5032774;28;20175;-44
2023/03/15 06:32:31;;;;;;;7.38;5.68;;;3.70;99.90;;;;;;5032493;28;20178;-44
2023/03/15 06:34:57;;;;;;;6.40;5.70;;;3.80;99.90;;;;;;5032398;28;20163;-44
2023/03/15 06:37:22;;;;;;;6.55;5.88;;;3.80;99.90;;;;;;5031037;28;20175;-51
2023/03/15 06:39:49;;;;;;;6.75;5.65;;;3.80;99.90;;;;;;5032510;28;20639;-49
2023/03/15 06:42:15;;;;;;;7.88;6.80;;;3.80;99.90;;;;;;5032684;28;20163;-52
2023/03/15 06:44:42;;;;;;;7.75;6.30;;;3.70;99.90;;;;;;5032280;28;20193;-50
2023/03/15 06:47:09;;;;;;;7.97;6.38;;;3.60;99.90;;;;;;5032047;28;20166;-50
2023/03/15 06:49:35;;;;;;;7.70;6.03;;;3.60;99.90;;;;;;5032072;28;20191;-48
2023/03/15 06:52:01;;;;;;;8.30;6.80;;;3.70;99.90;;;;;;5032426;28;20167;-48
2023/03/15 06:54:27;;;;;;;7.90;7.10;;;3.70;99.90;;;;;;5032154;28;20242;-45
2023/03/15 06:56:52;;;;;;;9.05;7.43;;;3.70;99.90;;;;;;5032136;28;20598;-45
2023/03/15 06:59:18;;;;;;;11.82;7.82;;;3.70;99.90;;;;;;5031959;28;20210;-44
2023/03/15 07:01:43;;;;;;;10.30;7.95;;;3.80;99.90;;;;;;5032401;28;20651;-44
2023/03/15 07:04:09;;;;;;;9.88;7.85;;;3.90;99.90;;;;;;5031979;28;20582;-45
2023/03/15 07:06:35;;;;;;;8.30;7.50;;;3.90;99.90;;;;;;5031646;28;20206;-44
2023/03/15 07:09:03;;;;;;;10.18;7.25;;;3.90;99.90;;;;;;5031337;28;20298;-46
2023/03/15 07:11:28;;;;;;;9.73;7.70;;;3.90;99.90;;;;;;5031987;28;20179;-46
2023/03/15 07:13:54;;;;;;;9.63;7.72;;;4.00;99.90;;;;;;5031894;28;20619;-47
2023/03/15 07:16:20;;;;;;;9.38;7.63;;;4.00;99.90;;;;;;5031968;28;20198;-50
2023/03/15 07:18:45;;;;;;;10.57;8.13;;;4.10;99.90;;;;;;5032124;28;20199;-52
2023/03/15 07:21:11;;;;;;;10.43;7.03;;;4.10;99.90;;;;;;5031785;28;20244;-52
2023/03/15 07:23:36;;;;;;;9.93;8.90;;;4.10;99.90;;;;;;5031703;28;20215;-50
2023/03/15 07:26:02;;;;;;;9.35;8.43;;;4.00;99.90;;;;;;5031714;28;20175;-47
2023/03/15 07:28:28;;;;;;;11.75;7.75;;;4.10;99.90;;;;;;5031790;28;20178;-52
2023/03/15 07:30:55;;;;;;;11.38;8.15;;;4.00;99.90;;;;;;5031683;28;20176;-51
2023/03/15 07:33:22;;;;;;;11.88;7.80;;;3.90;99.90;;;;;;5031640;28;20189;-52
2023/03/15 07:35:49;;;;;;;12.20;8.50;;;4.00;99.90;;;;;;5031518;28;20213;-52
2023/03/15 07:38:15;;;;;;;12.43;8.35;;;4.10;99.90;;;;;;5032016;28;20226;-52
2023/03/15 07:40:41;;;;;;;10.68;8.18;;;4.10;99.90;;;;;;5032012;28;20171;-52
2023/03/15 07:43:06;;;;;;;14.30;8.95;;;4.10;99.90;;;;;;5031569;28;20168;-51
2023/03/15 07:45:33;;;;;;;10.63;7.10;;;4.10;99.90;;;;;;5031474;28;20168;-49
2023/03/15 07:47:59;;;;;;;10.18;8.80;;;4.20;99.90;;;;;;5031375;28;20179;-52
2023/03/15 07:50:25;;;;;;;11.65;8.13;;;4.10;99.90;;;;;;5031691;28;20233;-51
2023/03/15 07:52:51;;;;;;;15.45;9.63;;;4.10;99.90;;;;;;5030359;28;20266;-52
2023/03/15 07:55:17;;;;;;;10.77;8.10;;;4.20;99.90;;;;;;5031620;28;20258;-52
2023/03/15 07:57:43;;;;;;;11.90;9.10;;;4.20;99.90;;;;;;5031388;28;20593;-52
2023/03/15 08:00:12;;;;;;;12.82;8.50;;;4.30;99.90;;;;;;5031404;28;20199;-53
2023/03/15 08:02:38;;;;;;;10.43;8.75;;;4.30;99.90;;;;;;5030493;28;20179;-51
2023/03/15 08:05:04;;;;;;;10.48;7.43;;;4.30;99.90;;;;;;5031070;28;20180;-52
2023/03/15 08:07:30;;;;;;;10.43;7.43;;;4.30;99.90;;;;;;5031384;28;20265;-51
2023/03/15 08:09:58;;;;;;;13.88;7.80;;;4.30;99.90;;;;;;5031301;28;20168;-51
2023/03/15 08:12:24;;;;;;;10.52;7.53;;;4.40;99.90;;;;;;5031324;28;20207;-49
2023/03/15 08:14:50;;;;;;;8.88;6.45;;;4.40;99.90;;;;;;5030149;28;20198;-45
2023/03/15 08:17:16;;;;;;;11.57;6.93;;;4.50;99.90;;;;;;5031486;28;20242;-48
2023/03/15 08:19:42;;;;;;;10.75;6.88;;;4.40;99.90;;;;;;5032335;28;20207;-46
2023/03/15 08:22:09;;;;;;;9.73;7.47;;;4.40;99.90;;;;;;5034934;28;20617;-48
2023/03/15 08:24:35;;;;;;;9.93;7.30;;;4.50;99.90;;;;;;5034902;28;20178;-50
2023/03/15 08:27:00;;;;;;;13.18;6.72;;;4.50;99.90;;;;;;5034761;28;20187;-49
2023/03/15 08:29:26;;;;;;;8.70;6.15;;;4.60;99.90;;;;;;5035068;28;20183;-46
2023/03/15 08:31:52;;;;;;;7.82;5.47;;;4.60;99.90;;;;;;5034826;28;20693;-49
2023/03/15 08:34:18;;;;;;;10.15;6.68;;;4.60;99.90;;;;;;5034750;28;20179;-47
2023/03/15 08:36:46;;;;;;;12.95;6.90;;;4.60;99.90;;;;;;5035535;28;20222;-48
2023/03/15 08:39:12;;;;;;;7.65;5.72;;;2.40;99.90;;;;;;5034939;28;20737;-49
2023/03/15 08:41:38;;;;;;;9.90;6.28;;;4.70;99.90;;;;;;5034764;28;20175;-45
2023/03/15 08:44:03;;;;;;;12.15;7.28;;;4.80;99.90;;;;;;5034852;28;20172;-50
2023/03/15 08:46:29;;;;;;;9.48;6.78;;;4.90;99.90;;;;;;5034344;28;20258;-44
2023/03/15 08:48:55;;;;;;;13.30;7.18;;;4.90;99.90;;;;;;5034540;28;20160;-44
2023/03/15 08:51:20;;;;;;;9.23;6.78;;;5.00;99.90;;;;;;5034668;28;20171;-44
2023/03/15 08:53:46;;;;;;;11.02;7.65;;;5.10;99.90;;;;;;5034140;28;20164;-44
2023/03/15 08:56:12;;;;;;;10.75;6.55;;;5.20;99.90;;;;;;5034554;28;20179;-45
2023/03/15 08:58:38;;;;;;;11.57;6.97;;;5.20;99.90;;;;;;5034530;28;20244;-44
2023/03/15 09:01:03;;;;;;;10.40;5.95;;;5.30;99.90;;;;;;5034478;28;20650;-48
2023/03/15 09:03:31;;;;;;;8.70;5.50;;;5.40;99.90;;;;;;5034131;28;20253;-51
2023/03/15 09:05:58;;;;;;;11.30;5.45;;;5.40;99.90;;;;;;5033837;28;20301;-49
2023/03/15 09:08:25;;;;;;;10.27;4.97;;;5.40;99.90;;;;;;5034080;28;20226;-49
2023/03/15 09:10:57;;;;;;;9.55;5.78;;;5.30;99.90;;;;;;5034196;28;20167;-49
2023/03/15 09:13:24;;;;;;;9.95;5.60;;;5.40;99.90;;;;;;5034039;28;20237;-45
2023/03/15 09:15:50;;;;;;;8.27;5.15;;;5.50;99.90;;;;;;5033912;28;20526;-51
2023/03/15 09:18:16;;;;;;;11.73;5.20;;;5.50;99.90;;;;;;5033972;28;20201;-47
2023/03/15 09:20:42;;;;;;;7.05;4.63;;;5.50;99.90;;;;;;5034361;28;20583;-44
2023/03/15 09:23:08;;;;;;;7.55;5.00;;;5.50;99.90;;;;;;5033844;28;20247;-47
2023/03/15 09:25:35;;;;;;;7.80;4.97;;;5.40;99.90;;;;;;5033548;28;20177;-46
2023/03/15 09:28:02;;;;;;;9.38;5.20;;;5.40;99.90;;;;;;5034056;28;20181;-45
2023/03/15 09:30:27;;;;;;;8.65;5.30;;;5.50;99.90;;;;;;5033711;28;20199;-48
2023/03/15 09:32:53;;;;;;;11.52;5.05;;;5.60;99.90;;;;;;5032776;28;20206;-49
2023/03/15 09:35:19;;;;;;;8.40;4.95;;;5.50;99.90;;;;;;5032388;28;20367;-45
2023/03/15 09:37:46;;;;;;;8.50;5.15;;;5.60;99.90;;;;;;5034157;28;20167;-45
2023/03/15 09:40:17;;;;;;;10.45;5.63;;;5.70;99.90;;;;;;5033958;28;20175;-47
2023/03/15 09:43:01;;;;;;;8.68;5.40;;;5.80;99.90;;;;;;5034148;28;20177;-46
2023/03/15 09:45:58;;;;;;;15.52;4.93;;;6.30;99.90;;;;;;5033468;28;20717;-46
2023/03/15 09:48:59;;;;;;;11.25;4.88;;;6.70;99.90;;;;;;5033345;28;20195;-45
2023/03/15 09:51:36;;;;;;;8.70;6.47;;;7.10;99.90;;;;;;5032268;28;20412;-47
2023/03/15 09:54:19;;;;;;;6.45;4.60;;;7.20;99.90;;;;;;5033305;28;20178;-45
2023/03/15 09:57:08;;;;;;;6.18;4.43;;;7.40;99.90;;;;;;5033469;28;20164;-44
2023/03/15 09:59:40;;;;;;;10.68;4.88;;;7.20;99.90;;;;;;5033236;28;20222;-52
2023/03/15 10:02:28;;;;;;;6.32;3.80;;;6.90;99.90;;;;;;5033346;28;20560;-52
2023/03/15 10:05:03;;;;;;;4.75;3.85;;;6.80;99.90;;;;;;5032810;28;20175;-44
2023/03/15 10:07:28;;;;;;;12.90;4.40;;;6.70;99.90;;;;;;5032846;28;20214;-44
2023/03/15 10:09:57;;;;;;;10.32;4.10;;;6.60;99.90;;;;;;5032985;28;20554;-46
2023/03/15 10:12:29;;;;;;;10.43;3.65;;;6.50;99.90;;;;;;5032926;28;20168;-49
2023/03/15 10:15:03;;;;;;;9.45;3.92;;;6.80;99.90;;;;;;5033462;28;20167;-44
2023/03/15 10:17:37;;;;;;;7.90;4.00;;;7.00;99.90;;;;;;5032621;28;20176;-44
2023/03/15 10:20:25;;;;;;;9.52;3.47;;;7.30;99.90;;;;;;5032742;28;20178;-44
2023/03/15 10:23:06;;;;;;;10.07;4.88;;;7.80;99.90;;;;;;5032667;28;20647;-44
2023/03/15 10:25:34;;;;;;;6.30;4.95;;;7.80;99.90;;;;;;5032378;28;20175;-44
2023/03/15 10:28:09;;;;;;;9.10;4.85;;;7.60;99.90;;;;;;5032176;28;20171;-44
2023/03/15 10:30:37;;;;;;;10.43;4.88;;;7.20;99.90;;;;;;5032225;28;20529;-45
2023/03/15 10:33:27;;;;;;;10.23;5.28;;;7.10;99.90;;;;;;5031902;28;20242;-46
2023/03/15 10:35:53;;;;;;;12.18;6.55;;;7.10;99.90;;;;;;5032144;28;20167;-46
2023/03/15 10:38:20;;;;;;;13.98;5.38;;;7.10;99.90;;;;;;5031869;28;20556;-46
2023/03/15 10:40:52;;;;;;;10.55;5.10;;;7.60;99.90;;;;;;5031661;28;20160;-44
2023/03/15 10:43:21;;;;;;;7.40;4.80;;;7.80;99.90;;;;;;5032082;28;20179;-45
2023/03/15 10:46:05;;;;;;;7.53;4.80;;;7.90;99.90;;;;;;5031741;28;20159;-45
2023/03/15 10:48:36;;;;;;;8.13;5.03;;;7.70;99.90;;;;;;5031667;28;20167;-45
2023/03/15 10:51:06;;;;;;;9.98;5.45;;;7.50;99.90;;;;;;5031955;28;20537;-45
2023/03/15 10:53:32;;;;;;;10.73;5.15;;;7.50;99.90;;;;;;5031681;28;20175;-45
2023/03/15 10:56:05;;;;;;;8.32;4.75;;;7.40;99.90;;;;;;5031764;28;20182;-46
2023/03/15 10:58:41;;;;;;;12.98;6.45;;;7.40;99.90;;;;;;5031419;28;20203;-45
2023/03/15 11:01:12;;;;;;;8.95;4.38;;;7.60;99.90;;;;;;5031133;28;20639;-45
2023/03/15 11:03:42;;;;;;;11.73;4.28;;;7.50;99.90;;;;;;5031334;28;20183;-45
2023/03/15 11:06:26;;;;;;;10.32;4.35;;;7.20;99.90;;;;;;5031354;28;20722;-48
2023/03/15 11:08:51;;;;;;;11.93;4.80;;;7.50;99.90;;;;;;5031294;28;20802;-45
2023/03/15 11:11:17;;;;;;;9.63;4.40;;;7.60;99.90;;;;;;5031297;28;20175;-45
2023/03/15 11:13:58;;;;;;;6.68;3.97;;;7.60;99.90;;;;;;5031565;28;20170;-44
2023/03/15 11:16:23;;;;;;;14.55;4.43;;;7.70;99.90;;;;;;5031520;28;20171;-52
2023/03/15 11:19:10;;;;;;;9.57;4.07;;;7.70;99.90;;;;;;5031137;28;20203;-52
2023/03/15 11:21:37;;;;;;;19.58;3.83;;;7.70;99.90;;;;;;5031410;28;20534;-52
2023/03/15 11:24:04;;;;;;;14.85;5.55;;;7.80;99.90;;;;;;5031020;28;20175;-52
2023/03/15 11:26:38;;;;;;;7.97;4.28;;;7.90;99.90;;;;;;5031349;28;20194;-51
2023/03/15 11:29:20;;;;;;;9.07;3.67;;;7.90;99.90;;;;;;5031170;28;20254;-45
2023/03/15 11:31:46;;;;;;;7.10;3.67;;;7.80;99.90;;;;;;5031069;28;20171;-50
2023/03/15 11:34:27;;;;;;;7.35;3.70;;;7.60;99.90;;;;;;5031127;28;20171;-47
2023/03/15 11:37:01;;;;;;;7.00;3.17;;;7.40;99.90;;;;;;5029758;28;20217;-49
2023/03/15 11:39:44;;;;;;;10.05;3.85;;;7.30;99.90;;;;;;5030908;28;20207;-51
2023/03/15 11:42:19;;;;;;;6.25;3.13;;;7.30;99.90;;;;;;5031275;28;20222;-53
2023/03/15 11:44:48;;;;;;;8.13;3.00;;;7.40;99.90;;;;;;5030019;28;20171;-53
2023/03/15 11:47:53;;;;;;;4.82;2.40;;;7.20;99.90;;;;;;5031410;28;20262;-52
2023/03/15 11:50:18;;;;;;;5.32;2.55;;;7.50;99.90;;;;;;5031146;28;20309;-45
2023/03/15 11:52:48;;;;;;;8.95;3.53;;;8.10;99.90;;;;;;5031039;28;20202;-53
2023/03/15 11:55:23;;;;;;;7.72;3.83;;;8.20;99.90;;;;;;5032973;28;20179;-48
2023/03/15 11:57:49;;;;;;;9.43;3.88;;;8.30;99.90;;;;;;5034656;28;20248;-46
2023/03/15 12:00:27;;;;;;;7.35;3.38;;;8.00;99.90;;;;;;5035092;28;20190;-44
2023/03/15 12:02:55;;;;;;;5.03;3.58;;;7.90;99.90;;;;;;5033609;28;20171;-52
2023/03/15 12:05:47;;;;;;;8.45;3.38;;;7.60;99.90;;;;;;5034813;28;20170;-44
2023/03/15 12:08:15;;;;;;;9.82;2.90;;;7.50;99.90;;;;;;5035243;28;20211;-47
2023/03/15 12:10:46;;;;;;;11.27;3.45;;;7.90;99.90;;;;;;5035223;28;20246;-45
2023/03/15 12:13:22;;;;;;;16.23;3.50;;;8.00;99.90;;;;;;5035045;28;20190;-45
2023/03/15 12:15:48;;;;;;;6.63;2.92;;;7.90;99.90;;;;;;5034789;28;20171;-50
2023/03/15 12:18:17;;;;;;;9.18;3.47;;;7.80;99.90;;;;;;5035132;28;20222;-45
2023/03/15 12:21:03;;;;;;;4.28;2.10;;;7.80;99.90;;;;;;5035144;28;20222;-47
2023/03/15 12:23:42;;;;;;;3.33;2.63;;;8.00;99.90;;;;;;5023969;28;20275;-52
2023/03/15 12:26:30;;;;;;;5.18;2.78;;;8.10;99.90;;;;;;5033094;28;20519;-52
2023/03/15 12:29:12;;;;;;;4.78;3.30;;;8.10;99.90;;;;;;5034018;28;20190;-52
2023/03/15 12:31:57;;;;;;;4.10;2.80;;;7.90;99.90;;;;;;5034007;28;20167;-50
2023/03/15 12:34:26;;;;;;;5.63;2.03;;;7.80;99.90;;;;;;5034448;28;20179;-44
2023/03/15 12:36:56;;;;;;;6.72;2.10;;;7.70;99.90;;;;;;5034137;28;20172;-45
2023/03/15 12:39:38;;;;;;;7.22;2.47;;;7.80;99.90;;;;;;5034133;28;20218;-49
2023/03/15 12:42:04;;;;;;;8.57;2.67;;;7.80;99.90;;;;;;5033526;28;20532;-43
2023/03/15 12:44:38;;;;;;;8.13;2.85;;;7.80;99.90;;;;;;5033955;28;20186;-43
2023/03/15 12:47:06;;;;;;;6.68;2.80;;;7.70;99.90;;;;;;5034679;28;20526;-45
2023/03/15 12:49:43;;;;;;;6.30;2.35;;;7.70;99.90;;;;;;5034649;28;20172;-45
2023/03/15 12:52:14;;;;;;;6.50;1.92;;;7.70;99.90;;;;;;5033080;28;20261;-44
2023/03/15 12:54:45;;;;;;;36.25;17.30;;;7.80;99.90;;;;;;5034485;28;20191;-44
2023/03/15 12:57:12;;;;;;;21.73;10.80;;;7.80;99.90;;;;;;5034858;28;20164;-44
2023/03/15 13:00:06;;;;;;;9.90;2.58;;;7.90;99.90;;;;;;5033570;28;20214;-44
2023/03/15 13:02:32;;;;;;;10.68;4.25;;;7.80;99.90;;;;;;5033795;28;20266;-45